createdAt,value
2023-03-25T00:01:14.998Z,7.40
2023-03-25T00:03:42.990Z,7.40
2023-03-25T00:06:11.250Z,7.30
2023-03-25T00:08:38.530Z,7.20
2023-03-25T00:11:06.493Z,7.20
2023-03-25T00:13:33.614Z,7.20
2023-03-25T00:16:01.346Z,7.20
2023-03-25T00:18:30.737Z,7.20
2023-03-25T00:20:57.629Z,7.10
2023-03-25T00:23:24.699Z,7.10
2023-03-25T00:25:51.779Z,7.20
2023-03-25T00:28:18.954Z,7.20
2023-03-25T00:30:46.465Z,7.10
2023-03-25T00:33:13.655Z,7.20
2023-03-25T00:35:41.280Z,7.20
2023-03-25T00:38:08.408Z,7.30
2023-03-25T00:40:35.824Z,7.20
2023-03-25T00:43:04.207Z,7.30
2023-03-25T00:45:31.421Z,7.30
2023-03-25T00:47:58.568Z,7.30
2023-03-25T00:50:25.839Z,7.30
2023-03-25T00:52:53.194Z,7.30
2023-03-25T00:55:20.478Z,7.30
2023-03-25T00:57:47.460Z,7.40
2023-03-25T01:00:17.209Z,7.40
2023-03-25T01:02:44.734Z,7.40
2023-03-25T01:05:12.419Z,7.40
2023-03-25T01:07:40.358Z,7.40
2023-03-25T01:10:08.402Z,7.40
2023-03-25T01:12:35.273Z,7.30
2023-03-25T01:15:02.212Z,7.30
2023-03-25T01:17:29.113Z,7.30
2023-03-25T01:19:56.024Z,7.30
2023-03-25T01:22:22.843Z,7.40
2023-03-25T01:24:49.686Z,7.40
2023-03-25T01:27:16.583Z,7.40
2023-03-25T01:29:43.432Z,7.40
2023-03-25T01:32:10.288Z,7.40
2023-03-25T01:34:37.128Z,7.40
2023-03-25T01:37:04.401Z,7.40
2023-03-25T01:39:31.280Z,7.40
2023-03-25T01:41:58.133Z,7.40
2023-03-25T01:44:24.944Z,7.50
2023-03-25T01:46:54.013Z,7.40
2023-03-25T01:49:26.810Z,7.30
2023-03-25T01:52:03.577Z,7.30
2023-03-25T01:54:31.079Z,7.40
2023-03-25T01:56:58.280Z,7.30
2023-03-25T01:59:28.562Z,7.40
2023-03-25T02:01:57.290Z,7.30
2023-03-25T02:04:47.371Z,7.30
2023-03-25T02:07:14.563Z,7.30
2023-03-25T02:09:41.557Z,7.10
2023-03-25T02:12:08.430Z,7.40
2023-03-25T02:14:37.322Z,7.30
2023-03-25T02:17:33.812Z,7.30
2023-03-25T02:20:22.098Z,7.40
2023-03-25T02:23:16.267Z,7.30
2023-03-25T02:26:12.143Z,7.30
2023-03-25T02:28:59.594Z,7.30
2023-03-25T02:32:09.768Z,7.30
2023-03-25T02:34:42.394Z,7.30
2023-03-25T02:37:23.417Z,7.30
2023-03-25T02:39:54.878Z,7.30
2023-03-25T02:42:28.402Z,7.30
2023-03-25T02:45:05.866Z,7.20
2023-03-25T02:47:36.805Z,7.30
2023-03-25T02:50:10.480Z,7.30
2023-03-25T02:52:46.317Z,7.40
2023-03-25T02:55:15.806Z,7.50
2023-03-25T02:57:46.364Z,7.40
2023-03-25T03:00:16.213Z,7.50
2023-03-25T03:02:53.569Z,7.40
2023-03-25T03:05:32.784Z,7.50
2023-03-25T03:08:21.037Z,7.50
2023-03-25T03:10:47.859Z,7.50
2023-03-25T03:13:40.818Z,7.50
2023-03-25T03:16:16.721Z,7.50
2023-03-25T03:19:17.754Z,7.60
2023-03-25T03:21:53.408Z,7.50
2023-03-25T03:24:32.124Z,7.50
2023-03-25T03:27:14.937Z,7.50
2023-03-25T03:30:01.916Z,7.60
2023-03-25T03:32:32.805Z,7.50
2023-03-25T03:35:06.439Z,7.50
2023-03-25T03:37:47.747Z,7.50
2023-03-25T03:40:18.702Z,7.50
2023-03-25T03:42:54.977Z,7.40
2023-03-25T03:45:49.827Z,7.50
2023-03-25T03:48:31.162Z,7.50
2023-03-25T03:51:05.945Z,7.50
2023-03-25T03:53:40.349Z,7.50
2023-03-25T03:56:14.294Z,7.50
2023-03-25T03:58:43.281Z,7.60
2023-03-25T04:01:35.074Z,7.50
2023-03-25T04:04:08.999Z,7.50
2023-03-25T04:06:43.362Z,7.50
2023-03-25T04:09:25.632Z,7.50
2023-03-25T04:11:59.411Z,7.50
2023-03-25T04:14:26.487Z,7.50
2023-03-25T04:16:54.649Z,7.60
2023-03-25T04:19:21.513Z,7.60
2023-03-25T04:21:48.518Z,7.60
2023-03-25T04:24:16.100Z,7.60
2023-03-25T04:26:43.640Z,7.60
2023-03-25T04:29:10.617Z,7.70
2023-03-25T04:31:37.566Z,7.80
2023-03-25T04:34:04.645Z,7.70
2023-03-25T04:36:31.804Z,7.80
2023-03-25T04:38:58.628Z,7.70
2023-03-25T04:41:25.688Z,7.70
2023-03-25T04:43:52.552Z,7.80
2023-03-25T04:46:19.897Z,7.90
2023-03-25T04:48:46.986Z,7.80
2023-03-25T04:51:15.185Z,7.90
2023-03-25T04:53:42.728Z,7.90
2023-03-25T04:56:13.648Z,7.90
2023-03-25T04:58:40.476Z,7.80
2023-03-25T05:01:07.772Z,7.90
2023-03-25T05:03:34.654Z,7.90
2023-03-25T05:06:01.496Z,7.90
2023-03-25T05:08:28.368Z,7.90
2023-03-25T05:10:55.710Z,7.90
2023-03-25T05:13:22.597Z,8.00
2023-03-25T05:15:49.609Z,8.00
2023-03-25T05:18:17.236Z,8.00
2023-03-25T05:20:46.430Z,8.00
2023-03-25T05:23:14.410Z,8.10
2023-03-25T05:25:42.611Z,8.10
2023-03-25T05:28:10.193Z,8.20
2023-03-25T05:30:38.766Z,8.20
2023-03-25T05:33:09.989Z,8.20
2023-03-25T05:35:39.947Z,8.20
2023-03-25T05:38:07.224Z,8.20
2023-03-25T05:40:34.762Z,8.20
2023-03-25T05:43:02.141Z,8.30
2023-03-25T05:45:29.351Z,8.40
2023-03-25T05:47:56.457Z,8.40
2023-03-25T05:50:23.458Z,8.40
2023-03-25T05:52:50.350Z,8.40
2023-03-25T05:55:20.636Z,8.40
2023-03-25T05:57:48.016Z,8.40
2023-03-25T06:00:17.319Z,8.40
2023-03-25T06:02:44.290Z,8.40
2023-03-25T06:05:13.254Z,8.40
2023-03-25T06:07:45.083Z,8.50
2023-03-25T06:10:16.372Z,8.40
2023-03-25T06:12:44.412Z,8.40
2023-03-25T06:15:12.775Z,8.50
2023-03-25T06:17:40.455Z,8.50
2023-03-25T06:20:12.277Z,8.60
2023-03-25T06:22:40.982Z,8.60
2023-03-25T06:25:08.195Z,8.70
2023-03-25T06:27:35.148Z,8.70
2023-03-25T06:30:02.678Z,8.70
2023-03-25T06:32:29.652Z,8.80
2023-03-25T06:34:56.515Z,8.80
2023-03-25T06:37:23.357Z,8.80
2023-03-25T06:39:50.227Z,8.90
2023-03-25T06:42:17.092Z,9.00
2023-03-25T06:44:43.934Z,9.10
2023-03-25T06:47:10.787Z,9.10
2023-03-25T06:49:37.700Z,9.10
2023-03-25T06:52:08.144Z,9.20
2023-03-25T06:54:35.048Z,9.20
2023-03-25T06:57:01.948Z,9.30
2023-03-25T06:59:28.845Z,9.30
2023-03-25T07:01:55.723Z,9.40
2023-03-25T07:04:22.791Z,9.30
2023-03-25T07:06:49.749Z,9.20
2023-03-25T07:09:16.597Z,9.20
2023-03-25T07:11:43.694Z,9.20
2023-03-25T07:14:10.569Z,9.30
2023-03-25T07:16:37.443Z,9.30
2023-03-25T07:19:04.380Z,9.20
2023-03-25T07:21:31.194Z,9.30
2023-03-25T07:23:58.103Z,9.50
2023-03-25T07:26:24.954Z,9.60
2023-03-25T07:28:51.813Z,9.50
2023-03-25T07:31:18.651Z,9.60
2023-03-25T07:33:45.576Z,9.50
2023-03-25T07:36:13.833Z,9.50
2023-03-25T07:38:41.049Z,9.50
2023-03-25T07:41:11.015Z,9.60
2023-03-25T07:43:38.403Z,9.40
2023-03-25T07:46:05.728Z,9.50
2023-03-25T07:48:32.920Z,9.30
2023-03-25T07:50:59.871Z,9.40
2023-03-25T07:53:26.692Z,9.40
2023-03-25T07:55:53.667Z,9.40
2023-03-25T07:58:20.594Z,9.40
2023-03-25T08:00:47.650Z,9.70
2023-03-25T08:03:15.729Z,9.70
2023-03-25T08:05:49.322Z,9.70
2023-03-25T08:08:16.381Z,9.80
2023-03-25T08:10:44.336Z,9.90
2023-03-25T08:13:11.567Z,9.80
2023-03-25T08:15:38.815Z,9.90
2023-03-25T08:18:06.201Z,9.80
2023-03-25T08:20:36.450Z,10.00
2023-03-25T08:23:03.616Z,10.20
2023-03-25T08:25:31.380Z,11.70
2023-03-25T08:27:58.539Z,12.20
2023-03-25T08:30:25.491Z,13.70
2023-03-25T08:32:52.544Z,12.80
2023-03-25T08:35:20.462Z,11.70
2023-03-25T08:37:48.101Z,11.90
2023-03-25T08:40:15.345Z,11.20
2023-03-25T08:42:42.217Z,10.90
2023-03-25T08:45:09.895Z,10.70
2023-03-25T08:47:36.832Z,10.90
2023-03-25T08:50:04.233Z,10.80
2023-03-25T08:52:31.541Z,10.60
2023-03-25T08:54:58.394Z,10.60
2023-03-25T08:57:25.301Z,10.40
2023-03-25T08:59:52.306Z,10.40
2023-03-25T09:02:19.203Z,10.60
2023-03-25T09:04:48.599Z,10.50
2023-03-25T09:07:15.499Z,10.70
2023-03-25T09:09:42.479Z,10.80
2023-03-25T09:12:09.433Z,10.90
2023-03-25T09:14:36.698Z,11.00
2023-03-25T09:17:03.982Z,10.60
2023-03-25T09:19:30.823Z,10.30
2023-03-25T09:21:57.663Z,10.30
2023-03-25T09:24:24.644Z,10.10
2023-03-25T09:26:51.482Z,10.30
2023-03-25T09:29:18.342Z,11.20
2023-03-25T09:31:45.188Z,11.40
2023-03-25T09:34:12.062Z,11.60
2023-03-25T09:36:39.421Z,12.10
2023-03-25T09:39:06.299Z,12.80
2023-03-25T09:42:01.266Z,12.90
2023-03-25T09:44:34.315Z,12.80
2023-03-25T09:47:03.227Z,13.20
2023-03-25T09:49:42.883Z,12.80
2023-03-25T09:52:18.392Z,12.50
2023-03-25T09:54:51.920Z,13.20
2023-03-25T09:57:25.884Z,12.80
2023-03-25T09:59:53.396Z,13.00
2023-03-25T10:02:23.436Z,12.70
2023-03-25T10:05:14.897Z,12.40
2023-03-25T10:07:56.364Z,12.20
2023-03-25T10:10:52.169Z,12.80
2023-03-25T10:13:38.495Z,12.60
2023-03-25T10:16:22.275Z,13.00
2023-03-25T10:19:17.351Z,13.70
2023-03-25T10:22:08.691Z,12.80
2023-03-25T10:24:54.056Z,12.90
2023-03-25T10:27:38.206Z,13.10
2023-03-25T10:30:14.197Z,13.50
2023-03-25T10:32:45.557Z,13.10
2023-03-25T10:35:26.277Z,13.10
2023-03-25T10:37:55.534Z,12.90
2023-03-25T10:40:31.427Z,12.90
2023-03-25T10:43:14.030Z,12.90
2023-03-25T10:45:42.673Z,12.50
2023-03-25T10:48:16.389Z,12.50
2023-03-25T10:50:44.118Z,12.50
2023-03-25T10:53:23.920Z,12.20
2023-03-25T10:56:06.137Z,11.70
2023-03-25T10:58:35.764Z,11.70
2023-03-25T11:01:13.735Z,10.50
2023-03-25T11:03:42.830Z,9.10
2023-03-25T11:06:24.309Z,8.30
2023-03-25T11:09:27.029Z,7.90
2023-03-25T11:11:54.335Z,7.80
2023-03-25T11:14:26.485Z,7.60
2023-03-25T11:17:04.830Z,7.30
2023-03-25T11:19:55.248Z,7.40
2023-03-25T11:22:36.285Z,7.20
2023-03-25T11:25:25.589Z,7.30
2023-03-25T11:27:58.191Z,7.40
2023-03-25T11:30:26.137Z,7.50
2023-03-25T11:33:02.573Z,7.50
2023-03-25T11:35:32.191Z,7.30
2023-03-25T11:38:01.362Z,7.50
2023-03-25T11:40:30.649Z,7.70
2023-03-25T11:43:00.562Z,7.90
2023-03-25T11:45:35.991Z,7.80
2023-03-25T11:48:18.135Z,8.00
2023-03-25T11:50:48.356Z,9.20
2023-03-25T11:53:17.100Z,9.50
2023-03-25T11:55:59.093Z,9.90
2023-03-25T11:58:32.739Z,10.90
2023-03-25T12:01:05.465Z,12.10
2023-03-25T12:03:34.436Z,12.60
2023-03-25T12:06:07.059Z,12.60
2023-03-25T12:08:42.757Z,13.30
2023-03-25T12:11:43.341Z,12.70
2023-03-25T12:14:29.649Z,12.70
2023-03-25T12:17:05.424Z,12.70
2023-03-25T12:19:44.291Z,13.60
2023-03-25T12:22:23.267Z,12.80
2023-03-25T12:25:02.061Z,12.90
2023-03-25T12:27:31.915Z,13.10
2023-03-25T12:30:21.432Z,12.80
2023-03-25T12:33:05.556Z,12.80
2023-03-25T12:35:47.893Z,12.20
2023-03-25T12:38:38.874Z,12.00
2023-03-25T12:41:26.737Z,11.90
2023-03-25T12:44:32.023Z,12.00
2023-03-25T12:47:42.231Z,11.50
2023-03-25T12:50:27.653Z,11.30
2023-03-25T12:53:19.167Z,11.20
2023-03-25T12:56:34.114Z,10.70
2023-03-25T12:59:19.749Z,10.50
2023-03-25T13:01:58.813Z,10.00
2023-03-25T13:05:00.783Z,9.50
2023-03-25T13:07:37.900Z,9.30
2023-03-25T13:10:25.024Z,8.90
2023-03-25T13:12:57.103Z,8.90
2023-03-25T13:15:36.629Z,9.50
2023-03-25T13:18:18.844Z,10.50
2023-03-25T13:21:00.532Z,11.20
2023-03-25T13:23:29.101Z,11.80
2023-03-25T13:26:03.155Z,11.90
2023-03-25T13:28:42.148Z,11.50
2023-03-25T13:31:14.416Z,11.80
2023-03-25T13:33:50.770Z,11.60
2023-03-25T13:36:32.084Z,11.80
2023-03-25T13:39:20.940Z,12.00
2023-03-25T13:41:56.985Z,11.90
2023-03-25T13:44:36.665Z,12.10
2023-03-25T13:47:29.616Z,11.50
2023-03-25T13:50:07.374Z,11.90
2023-03-25T13:52:42.665Z,12.00
2023-03-25T13:55:23.368Z,12.40
2023-03-25T13:58:10.483Z,12.00
2023-03-25T14:00:56.820Z,12.20
2023-03-25T14:03:54.230Z,12.40
2023-03-25T14:06:58.183Z,12.50
2023-03-25T14:09:48.026Z,12.00
2023-03-25T14:12:41.940Z,11.80
2023-03-25T14:15:20.324Z,11.60
2023-03-25T14:17:47.967Z,11.50
2023-03-25T14:20:26.095Z,11.30
2023-03-25T14:23:03.673Z,11.10
2023-03-25T14:25:42.308Z,10.80
2023-03-25T14:28:16.743Z,10.80
2023-03-25T14:30:44.076Z,10.60
2023-03-25T14:33:12.034Z,10.30
2023-03-25T14:35:49.384Z,10.40
2023-03-25T14:38:16.600Z,10.20
2023-03-25T14:41:02.095Z,10.50
2023-03-25T14:43:44.054Z,10.30
2023-03-25T14:46:11.335Z,10.00
2023-03-25T14:48:42.531Z,10.40
2023-03-25T14:51:27.896Z,10.30
2023-03-25T14:54:19.317Z,10.60
2023-03-25T14:56:54.733Z,10.80
2023-03-25T14:59:27.881Z,10.70
2023-03-25T15:02:00.703Z,10.70
2023-03-25T15:04:39.220Z,10.70
2023-03-25T15:07:12.473Z,10.70
2023-03-25T15:10:06.562Z,10.70
2023-03-25T15:12:38.597Z,10.60
2023-03-25T15:15:30.422Z,10.30
2023-03-25T15:18:00.133Z,10.30
2023-03-25T15:20:29.927Z,10.40
2023-03-25T15:23:18.622Z,10.40
2023-03-25T15:25:46.974Z,10.20
2023-03-25T15:28:23.056Z,10.10
2023-03-25T15:31:04.982Z,9.90
2023-03-25T15:33:56.759Z,10.00
2023-03-25T15:37:00.156Z,9.90
2023-03-25T15:39:42.057Z,9.80
2023-03-25T15:42:22.364Z,9.70
2023-03-25T15:45:12.502Z,9.60
2023-03-25T15:47:48.232Z,9.80
2023-03-25T15:50:50.250Z,9.80
2023-03-25T15:53:41.495Z,9.80
2023-03-25T15:56:14.490Z,9.70
2023-03-25T15:58:54.892Z,9.70
2023-03-25T16:01:29.967Z,9.70
2023-03-25T16:04:31.804Z,9.70
2023-03-25T16:07:01.011Z,9.60
2023-03-25T16:09:29.075Z,9.60
2023-03-25T16:12:00.640Z,9.40
2023-03-25T16:14:31.344Z,9.30
2023-03-25T16:17:01.052Z,8.90
2023-03-25T16:19:42.857Z,8.60
2023-03-25T16:22:17.696Z,8.30
2023-03-25T16:24:46.680Z,8.20
2023-03-25T16:27:21.895Z,8.20
2023-03-25T16:29:54.144Z,8.30
2023-03-25T16:32:23.862Z,8.20
2023-03-25T16:34:50.703Z,8.30
2023-03-25T16:37:18.015Z,8.50
2023-03-25T16:39:50.324Z,8.60
2023-03-25T16:42:19.905Z,8.50
2023-03-25T16:44:47.197Z,8.50
2023-03-25T16:47:16.080Z,8.60
2023-03-25T16:49:47.839Z,8.20
2023-03-25T16:52:24.121Z,8.20
2023-03-25T16:54:50.950Z,8.10
2023-03-25T16:57:23.351Z,8.10
2023-03-25T16:59:52.977Z,7.90
2023-03-25T17:02:32.043Z,7.80
2023-03-25T17:05:23.202Z,7.70
2023-03-25T17:08:05.599Z,7.60
2023-03-25T17:10:52.042Z,7.60
2023-03-25T17:13:36.482Z,7.50
2023-03-25T17:16:07.250Z,7.40
2023-03-25T17:18:36.784Z,7.40
2023-03-25T17:21:09.321Z,7.30
2023-03-25T17:23:40.919Z,7.30
2023-03-25T17:26:11.598Z,7.20
2023-03-25T17:28:56.108Z,7.20
2023-03-25T17:31:34.913Z,7.20
2023-03-25T17:34:11.059Z,7.20
2023-03-25T17:36:40.577Z,7.20
2023-03-25T17:39:26.442Z,7.20
2023-03-25T17:42:05.371Z,7.10
2023-03-25T17:44:35.324Z,7.10
2023-03-25T17:47:02.226Z,7.10
2023-03-25T17:49:32.741Z,7.10
2023-03-25T17:51:59.752Z,7.10
2023-03-25T17:54:26.876Z,7.10
2023-03-25T17:56:53.948Z,7.10
2023-03-25T17:59:23.887Z,7.20
2023-03-25T18:01:51.073Z,7.10
2023-03-25T18:04:19.632Z,7.10
2023-03-25T18:06:46.817Z,7.20
2023-03-25T18:09:22.443Z,7.20
2023-03-25T18:11:52.486Z,7.30
2023-03-25T18:14:23.424Z,7.20
2023-03-25T18:16:51.662Z,7.30
2023-03-25T18:19:21.506Z,7.30
2023-03-25T18:21:48.553Z,7.30
2023-03-25T18:24:15.673Z,7.20
2023-03-25T18:26:44.251Z,7.20
2023-03-25T18:29:17.832Z,7.20
2023-03-25T18:31:44.703Z,7.20
2023-03-25T18:34:12.404Z,7.10
2023-03-25T18:36:39.972Z,7.10
2023-03-25T18:39:06.927Z,7.00
2023-03-25T18:41:34.154Z,6.90
2023-03-25T18:44:01.014Z,6.90
2023-03-25T18:46:27.900Z,6.90
2023-03-25T18:48:54.745Z,6.60
2023-03-25T18:51:21.609Z,6.70
2023-03-25T18:53:48.554Z,6.70
2023-03-25T18:56:15.390Z,6.50
2023-03-25T18:58:42.266Z,6.50
2023-03-25T19:01:13.629Z,6.40
2023-03-25T19:03:40.657Z,6.40
2023-03-25T19:06:12.934Z,6.30
2023-03-25T19:08:41.109Z,6.30
2023-03-25T19:11:19.172Z,6.30
2023-03-25T19:13:48.302Z,6.20
2023-03-25T19:16:15.203Z,6.30
2023-03-25T19:18:42.304Z,6.30
2023-03-25T19:21:10.362Z,6.30
2023-03-25T19:23:37.230Z,6.30
2023-03-25T19:26:04.420Z,6.30
2023-03-25T19:28:31.346Z,6.30
2023-03-25T19:31:01.177Z,6.30
2023-03-25T19:33:28.668Z,6.40
2023-03-25T19:35:55.583Z,6.30
2023-03-25T19:38:22.614Z,6.30
2023-03-25T19:40:51.007Z,6.40
2023-03-25T19:43:18.547Z,6.40
2023-03-25T19:45:45.664Z,6.40
2023-03-25T19:48:12.744Z,6.40
2023-03-25T19:50:39.601Z,6.40
2023-03-25T19:53:06.610Z,6.50
2023-03-25T19:55:33.768Z,6.50
2023-03-25T19:58:00.638Z,6.50
2023-03-25T20:00:28.217Z,6.60
2023-03-25T20:02:58.939Z,6.60
2023-03-25T20:05:25.985Z,6.60
2023-03-25T20:07:52.878Z,6.70
2023-03-25T20:10:21.900Z,6.80
2023-03-25T20:12:50.150Z,6.80
2023-03-25T20:15:18.634Z,6.80
2023-03-25T20:17:47.800Z,6.90
2023-03-25T20:20:14.870Z,6.90
2023-03-25T20:22:42.123Z,6.90
2023-03-25T20:25:10.562Z,6.90
2023-03-25T20:27:38.259Z,6.90
2023-03-25T20:30:07.021Z,6.90
2023-03-25T20:32:41.390Z,7.00
2023-03-25T20:35:12.088Z,6.90
2023-03-25T20:37:39.067Z,6.90
2023-03-25T20:40:08.234Z,6.90
2023-03-25T20:42:35.084Z,7.00
2023-03-25T20:45:01.988Z,7.00
2023-03-25T20:47:28.899Z,6.90
2023-03-25T20:49:55.799Z,7.00
2023-03-25T20:52:22.717Z,7.00
2023-03-25T20:54:49.593Z,7.00
2023-03-25T20:57:16.525Z,7.00
2023-03-25T20:59:43.370Z,7.00
2023-03-25T21:02:11.040Z,7.00
2023-03-25T21:04:38.123Z,7.00
2023-03-25T21:07:05.344Z,7.00
2023-03-25T21:09:32.216Z,7.00
2023-03-25T21:11:59.065Z,6.90
2023-03-25T21:14:26.292Z,7.00
2023-03-25T21:16:53.158Z,6.90
2023-03-25T21:19:20.626Z,6.90
2023-03-25T21:21:47.437Z,6.90
2023-03-25T21:24:14.356Z,6.90
2023-03-25T21:26:41.191Z,6.90
2023-03-25T21:29:08.091Z,6.90
2023-03-25T21:31:35.019Z,6.90
2023-03-25T21:34:01.955Z,6.90
2023-03-25T21:36:29.601Z,6.90
2023-03-25T21:38:58.802Z,6.80
2023-03-25T21:41:27.221Z,6.80
2023-03-25T21:43:54.102Z,6.80
2023-03-25T21:46:21.886Z,6.80
2023-03-25T21:48:48.739Z,6.80
2023-03-25T21:51:15.605Z,6.80
2023-03-25T21:53:44.497Z,6.80
2023-03-25T21:56:14.492Z,6.80
2023-03-25T21:58:41.563Z,6.70
2023-03-25T22:01:17.820Z,6.70
2023-03-25T22:03:44.846Z,6.70
2023-03-25T22:06:17.321Z,6.70
2023-03-25T22:08:44.847Z,6.70
2023-03-25T22:11:17.402Z,6.70
2023-03-25T22:13:44.789Z,6.70
2023-03-25T22:16:13.755Z,6.70
2023-03-25T22:18:41.313Z,6.80
2023-03-25T22:21:09.389Z,6.80
2023-03-25T22:23:36.927Z,6.80
2023-03-25T22:26:04.846Z,6.70
2023-03-25T22:28:31.773Z,6.80
2023-03-25T22:30:58.655Z,6.70
2023-03-25T22:33:25.667Z,6.80
2023-03-25T22:35:53.066Z,6.70
2023-03-25T22:38:20.090Z,6.80
2023-03-25T22:40:47.075Z,6.80
2023-03-25T22:43:13.901Z,6.80
2023-03-25T22:45:40.748Z,6.80
2023-03-25T22:48:07.634Z,6.80
2023-03-25T22:50:35.042Z,6.80
2023-03-25T22:53:01.938Z,6.70
2023-03-25T22:55:28.803Z,6.70
2023-03-25T22:57:55.642Z,6.70
2023-03-25T23:00:26.424Z,6.70
2023-03-25T23:02:53.326Z,6.70
2023-03-25T23:05:20.356Z,6.70
2023-03-25T23:07:47.228Z,6.70
2023-03-25T23:10:14.102Z,6.70
2023-03-25T23:12:40.933Z,6.70
2023-03-25T23:15:08.261Z,6.70
2023-03-25T23:17:35.158Z,6.70
2023-03-25T23:20:02.069Z,6.70
2023-03-25T23:22:28.914Z,6.70
2023-03-25T23:24:56.999Z,6.70
2023-03-25T23:27:23.872Z,6.70
2023-03-25T23:29:50.723Z,6.70
2023-03-25T23:32:17.620Z,6.70
2023-03-25T23:34:44.473Z,6.70
2023-03-25T23:37:11.361Z,6.70
2023-03-25T23:39:38.180Z,6.70
2023-03-25T23:42:05.126Z,6.70
2023-03-25T23:44:32.024Z,6.70
2023-03-25T23:46:58.913Z,6.70
2023-03-25T23:49:25.885Z,6.70
2023-03-25T23:51:52.727Z,6.70
2023-03-25T23:54:19.859Z,6.70
2023-03-25T23:56:46.783Z,6.70
2023-03-25T23:59:13.724Z,6.70
